createdAt,value
2023-03-19T00:00:08.598Z,58.14
2023-03-19T00:01:31.462Z,58.21
2023-03-19T00:02:34.870Z,58.33
2023-03-19T00:03:37.731Z,58.26
2023-03-19T00:04:40.565Z,58.37
2023-03-19T00:05:51.673Z,58.34
2023-03-19T00:06:54.847Z,58.43
2023-03-19T00:07:57.641Z,58.50
2023-03-19T00:09:00.683Z,58.48
2023-03-19T00:10:03.616Z,58.52
2023-03-19T00:11:10.699Z,58.59
2023-03-19T00:12:13.597Z,58.79
2023-03-19T00:13:16.818Z,58.71
2023-03-19T00:14:20.149Z,58.73
2023-03-19T00:15:22.954Z,58.66
2023-03-19T00:16:25.861Z,58.71
2023-03-19T00:17:28.689Z,58.78
2023-03-19T00:18:31.833Z,58.74
2023-03-19T00:19:34.683Z,58.76
2023-03-19T00:20:37.405Z,58.76
2023-03-19T00:21:40.618Z,58.77
2023-03-19T00:22:43.365Z,58.89
2023-03-19T00:23:46.478Z,58.88
2023-03-19T00:24:49.302Z,58.95
2023-03-19T00:25:54.651Z,58.88
2023-03-19T00:26:57.792Z,58.94
2023-03-19T00:28:01.650Z,58.92
2023-03-19T00:29:05.713Z,59.04
2023-03-19T00:30:09.154Z,59.09
2023-03-19T00:31:15.297Z,58.99
2023-03-19T00:32:18.299Z,59.08
2023-03-19T00:33:21.354Z,59.19
2023-03-19T00:34:24.274Z,59.09
2023-03-19T00:35:27.228Z,59.11
2023-03-19T00:36:30.392Z,59.14
2023-03-19T00:37:34.459Z,59.11
2023-03-19T00:38:37.864Z,59.13
2023-03-19T00:39:40.601Z,59.19
2023-03-19T00:40:43.841Z,59.13
2023-03-19T00:41:50.697Z,59.31
2023-03-19T00:42:53.782Z,59.24
2023-03-19T00:43:58.044Z,59.35
2023-03-19T00:45:00.997Z,59.37
2023-03-19T00:46:04.799Z,59.32
2023-03-19T00:47:08.957Z,59.40
2023-03-19T00:48:12.539Z,59.42
2023-03-19T00:49:15.462Z,59.33
2023-03-19T00:50:18.313Z,59.37
2023-03-19T00:51:23.570Z,59.45
2023-03-19T00:52:26.433Z,59.49
2023-03-19T00:53:29.244Z,59.48
2023-03-19T00:54:32.512Z,59.46
2023-03-19T00:55:36.130Z,59.57
2023-03-19T00:56:39.135Z,59.54
2023-03-19T00:57:41.910Z,59.51
2023-03-19T00:58:45.546Z,59.69
2023-03-19T00:59:48.377Z,59.67
2023-03-19T01:00:55.098Z,59.69
2023-03-19T01:01:58.244Z,59.73
2023-03-19T01:03:01.551Z,59.86
2023-03-19T01:04:05.787Z,59.81
2023-03-19T01:05:09.666Z,59.85
2023-03-19T01:06:13.321Z,59.72
2023-03-19T01:07:16.266Z,59.84
2023-03-19T01:08:19.612Z,59.92
2023-03-19T01:09:22.982Z,60.02
2023-03-19T01:10:26.523Z,59.98
2023-03-19T01:11:29.718Z,59.94
2023-03-19T01:12:32.516Z,59.97
2023-03-19T01:13:36.123Z,60.04
2023-03-19T01:14:38.938Z,60.03
2023-03-19T01:15:43.655Z,60.01
2023-03-19T01:16:46.587Z,60.05
2023-03-19T01:17:49.710Z,60.17
2023-03-19T01:18:52.851Z,60.17
2023-03-19T01:19:56.491Z,60.22
2023-03-19T01:20:59.827Z,60.26
2023-03-19T01:22:04.552Z,60.39
2023-03-19T01:23:08.636Z,60.30
2023-03-19T01:24:13.147Z,60.31
2023-03-19T01:25:16.601Z,60.30
2023-03-19T01:26:29.686Z,60.40
2023-03-19T01:27:40.918Z,60.44
2023-03-19T01:28:44.649Z,60.49
2023-03-19T01:29:48.233Z,60.38
2023-03-19T01:31:01.948Z,60.44
2023-03-19T01:32:23.309Z,60.54
2023-03-19T01:33:54.569Z,60.60
2023-03-19T01:35:30.292Z,60.67
2023-03-19T01:36:33.455Z,60.62
2023-03-19T01:37:38.463Z,60.79
2023-03-19T01:38:41.229Z,60.78
2023-03-19T01:39:49.144Z,60.79
2023-03-19T01:40:52.341Z,60.77
2023-03-19T01:41:55.545Z,60.78
2023-03-19T01:43:22.190Z,60.78
2023-03-19T01:44:38.468Z,60.77
2023-03-19T01:46:37.119Z,60.93
2023-03-19T01:47:58.484Z,60.98
2023-03-19T01:49:23.549Z,61.07
2023-03-19T01:50:45.491Z,61.05
2023-03-19T01:52:21.583Z,61.09
2023-03-19T01:53:36.497Z,61.13
2023-03-19T01:54:52.626Z,61.18
2023-03-19T01:56:34.865Z,61.20
2023-03-19T01:57:45.124Z,61.24
2023-03-19T01:59:15.453Z,61.23
2023-03-19T02:00:42.606Z,61.28
2023-03-19T02:01:55.103Z,61.30
2023-03-19T02:03:00.849Z,61.40
2023-03-19T02:04:35.814Z,61.40
2023-03-19T02:05:41.436Z,61.42
2023-03-19T02:06:46.799Z,61.51
2023-03-19T02:07:49.636Z,61.46
2023-03-19T02:08:53.056Z,61.54
2023-03-19T02:09:56.570Z,61.55
2023-03-19T02:11:00.484Z,61.55
2023-03-19T02:12:04.471Z,61.52
2023-03-19T02:13:07.530Z,61.60
2023-03-19T02:14:10.492Z,61.66
2023-03-19T02:15:13.524Z,61.70
2023-03-19T02:16:16.533Z,61.57
2023-03-19T02:17:22.818Z,61.60
2023-03-19T02:18:25.757Z,61.58
2023-03-19T02:19:40.709Z,61.60
2023-03-19T02:21:07.479Z,61.71
2023-03-19T02:22:12.054Z,61.81
2023-03-19T02:23:22.913Z,61.67
2023-03-19T02:24:38.755Z,61.69
2023-03-19T02:25:46.248Z,61.82
2023-03-19T02:26:50.766Z,61.90
2023-03-19T02:27:54.166Z,61.91
2023-03-19T02:28:57.220Z,61.93
2023-03-19T02:30:26.166Z,61.93
2023-03-19T02:31:30.099Z,62.24
2023-03-19T02:32:33.091Z,62.09
2023-03-19T02:33:36.507Z,62.03
2023-03-19T02:34:42.278Z,62.02
2023-03-19T02:35:51.977Z,62.04
2023-03-19T02:37:02.526Z,62.11
2023-03-19T02:38:06.044Z,62.10
2023-03-19T02:39:21.142Z,62.19
2023-03-19T02:40:29.458Z,62.20
2023-03-19T02:41:34.441Z,62.23
2023-03-19T02:42:37.888Z,62.25
2023-03-19T02:43:42.191Z,62.23
2023-03-19T02:44:46.284Z,62.28
2023-03-19T02:45:49.608Z,62.23
2023-03-19T02:46:52.387Z,62.25
2023-03-19T02:47:56.080Z,62.33
2023-03-19T02:48:59.123Z,62.39
2023-03-19T02:50:02.204Z,62.36
2023-03-19T02:51:05.838Z,62.38
2023-03-19T02:52:09.253Z,62.43
2023-03-19T02:53:12.144Z,62.43
2023-03-19T02:54:14.922Z,62.39
2023-03-19T02:55:18.624Z,62.48
2023-03-19T02:56:21.459Z,62.49
2023-03-19T02:57:24.584Z,62.44
2023-03-19T02:58:27.342Z,62.56
2023-03-19T02:59:30.535Z,62.48
2023-03-19T03:00:34.299Z,62.55
2023-03-19T03:01:37.498Z,62.58
2023-03-19T03:02:40.740Z,62.64
2023-03-19T03:03:43.561Z,62.76
2023-03-19T03:04:46.513Z,62.75
2023-03-19T03:05:49.262Z,62.70
2023-03-19T03:06:52.179Z,62.71
2023-03-19T03:07:55.040Z,62.76
2023-03-19T03:08:58.026Z,62.76
2023-03-19T03:10:02.203Z,62.69
2023-03-19T03:11:05.323Z,62.79
2023-03-19T03:12:08.635Z,62.84
2023-03-19T03:13:11.494Z,62.82
2023-03-19T03:14:14.328Z,62.90
2023-03-19T03:15:18.005Z,62.94
2023-03-19T03:16:21.739Z,62.97
2023-03-19T03:17:24.854Z,63.03
2023-03-19T03:18:28.003Z,63.11
2023-03-19T03:19:30.965Z,63.07
2023-03-19T03:20:34.341Z,63.08
2023-03-19T03:21:37.634Z,63.10
2023-03-19T03:22:40.917Z,63.09
2023-03-19T03:23:43.801Z,63.17
2023-03-19T03:24:46.611Z,63.18
2023-03-19T03:25:51.413Z,63.22
2023-03-19T03:26:54.295Z,63.38
2023-03-19T03:27:57.119Z,63.31
2023-03-19T03:29:00.245Z,63.27
2023-03-19T03:30:05.556Z,63.31
2023-03-19T03:31:10.514Z,63.31
2023-03-19T03:32:16.077Z,63.33
2023-03-19T03:33:19.087Z,63.43
2023-03-19T03:34:21.971Z,63.46
2023-03-19T03:35:25.586Z,63.44
2023-03-19T03:36:28.887Z,63.60
2023-03-19T03:37:31.898Z,63.52
2023-03-19T03:38:34.714Z,63.58
2023-03-19T03:39:37.864Z,63.54
2023-03-19T03:40:41.873Z,63.51
2023-03-19T03:41:44.883Z,63.58
2023-03-19T03:42:48.095Z,63.59
2023-03-19T03:43:51.094Z,63.66
2023-03-19T03:44:53.880Z,63.58
2023-03-19T03:45:57.003Z,63.91
2023-03-19T03:47:00.448Z,63.81
2023-03-19T03:48:03.411Z,63.79
2023-03-19T03:49:06.251Z,63.78
2023-03-19T03:50:11.106Z,63.81
2023-03-19T03:51:14.706Z,63.80
2023-03-19T03:52:17.882Z,63.78
2023-03-19T03:53:20.892Z,63.95
2023-03-19T03:54:23.753Z,64.03
2023-03-19T03:55:28.269Z,63.95
2023-03-19T03:56:31.475Z,63.98
2023-03-19T03:57:34.805Z,63.95
2023-03-19T03:58:37.924Z,64.11
2023-03-19T03:59:40.985Z,63.94
2023-03-19T04:00:44.115Z,63.99
2023-03-19T04:01:47.199Z,63.97
2023-03-19T04:02:50.877Z,64.00
2023-03-19T04:03:54.440Z,63.97
2023-03-19T04:04:57.854Z,63.95
2023-03-19T04:06:00.849Z,64.02
2023-03-19T04:07:04.020Z,64.06
2023-03-19T04:08:19.469Z,64.15
2023-03-19T04:09:22.456Z,64.12
2023-03-19T04:10:25.274Z,64.14
2023-03-19T04:11:28.109Z,64.11
2023-03-19T04:12:30.872Z,64.01
2023-03-19T04:13:36.793Z,64.11
2023-03-19T04:14:40.350Z,64.17
2023-03-19T04:15:44.012Z,64.16
2023-03-19T04:16:47.568Z,64.02
2023-03-19T04:17:50.492Z,64.11
2023-03-19T04:18:53.922Z,64.25
2023-03-19T04:19:57.269Z,64.27
2023-03-19T04:21:00.165Z,64.37
2023-03-19T04:22:03.630Z,64.37
2023-03-19T04:23:08.344Z,64.38
2023-03-19T04:24:11.601Z,64.40
2023-03-19T04:25:15.424Z,64.52
2023-03-19T04:26:18.432Z,64.43
2023-03-19T04:27:22.102Z,64.47
2023-03-19T04:28:25.410Z,64.50
2023-03-19T04:29:28.748Z,64.46
2023-03-19T04:30:35.125Z,64.41
2023-03-19T04:31:38.334Z,64.47
2023-03-19T04:32:41.538Z,64.39
2023-03-19T04:33:44.637Z,64.53
2023-03-19T04:34:48.519Z,64.50
2023-03-19T04:35:51.830Z,64.46
2023-03-19T04:36:54.644Z,64.47
2023-03-19T04:37:57.483Z,64.55
2023-03-19T04:39:00.642Z,64.59
2023-03-19T04:40:04.348Z,64.58
2023-03-19T04:41:09.004Z,64.64
2023-03-19T04:42:13.056Z,64.64
2023-03-19T04:43:37.445Z,64.77
2023-03-19T04:44:40.786Z,64.74
2023-03-19T04:45:45.341Z,64.63
2023-03-19T04:46:48.588Z,64.78
2023-03-19T04:47:52.207Z,64.81
2023-03-19T04:48:56.111Z,64.80
2023-03-19T04:49:59.520Z,64.80
2023-03-19T04:51:03.746Z,64.90
2023-03-19T04:52:06.716Z,64.92
2023-03-19T04:53:09.577Z,64.98
2023-03-19T04:54:12.690Z,65.00
2023-03-19T04:55:15.596Z,65.08
2023-03-19T04:56:27.823Z,65.11
2023-03-19T04:57:31.128Z,65.02
2023-03-19T04:58:35.274Z,65.12
2023-03-19T04:59:38.646Z,65.26
2023-03-19T05:00:41.453Z,65.29
2023-03-19T05:01:44.434Z,65.24
2023-03-19T05:02:48.424Z,65.31
2023-03-19T05:03:51.553Z,65.24
2023-03-19T05:04:54.503Z,65.32
2023-03-19T05:05:57.574Z,65.44
2023-03-19T05:07:00.905Z,65.38
2023-03-19T05:08:05.021Z,65.42
2023-03-19T05:09:07.997Z,65.52
2023-03-19T05:10:11.330Z,65.42
2023-03-19T05:11:14.733Z,65.50
2023-03-19T05:12:30.749Z,65.51
2023-03-19T05:13:33.942Z,65.56
2023-03-19T05:14:36.709Z,65.60
2023-03-19T05:15:47.588Z,65.65
2023-03-19T05:16:50.412Z,65.63
2023-03-19T05:17:53.514Z,65.74
2023-03-19T05:19:01.055Z,65.75
2023-03-19T05:20:07.346Z,65.78
2023-03-19T05:21:12.334Z,65.78
2023-03-19T05:22:15.658Z,65.69
2023-03-19T05:23:18.515Z,65.68
2023-03-19T05:24:40.453Z,65.91
2023-03-19T05:25:43.925Z,65.92
2023-03-19T05:26:48.676Z,66.02
2023-03-19T05:28:20.685Z,66.05
2023-03-19T05:29:23.747Z,66.05
2023-03-19T05:30:56.537Z,66.14
2023-03-19T05:32:10.673Z,66.05
2023-03-19T05:33:14.468Z,66.22
2023-03-19T05:34:18.169Z,66.19
2023-03-19T05:35:21.107Z,66.21
2023-03-19T05:36:24.172Z,66.16
2023-03-19T05:37:32.607Z,66.15
2023-03-19T05:38:35.919Z,66.19
2023-03-19T05:39:42.619Z,66.17
2023-03-19T05:40:46.219Z,66.17
2023-03-19T05:41:57.024Z,66.25
2023-03-19T05:43:03.339Z,66.35
2023-03-19T05:44:06.855Z,66.28
2023-03-19T05:45:29.351Z,66.28
2023-03-19T05:46:36.410Z,66.16
2023-03-19T05:47:39.751Z,66.16
2023-03-19T05:48:42.495Z,66.11
2023-03-19T05:49:45.600Z,66.13
2023-03-19T05:50:48.700Z,66.07
2023-03-19T05:51:56.483Z,66.17
2023-03-19T05:52:59.659Z,66.14
2023-03-19T05:54:03.164Z,66.18
2023-03-19T05:55:15.690Z,66.22
2023-03-19T05:56:26.209Z,66.10
2023-03-19T05:58:07.840Z,65.91
2023-03-19T05:59:11.016Z,65.66
2023-03-19T06:00:16.393Z,65.35
2023-03-19T06:01:19.416Z,65.33
2023-03-19T06:02:22.701Z,65.40
2023-03-19T06:03:27.232Z,65.36
2023-03-19T06:04:31.235Z,65.31
2023-03-19T06:05:34.294Z,65.07
2023-03-19T06:06:50.753Z,65.08
2023-03-19T06:07:54.770Z,64.91
2023-03-19T06:09:03.910Z,64.49
2023-03-19T06:10:11.877Z,64.25
2023-03-19T06:11:14.852Z,64.07
2023-03-19T06:12:18.199Z,63.82
2023-03-19T06:13:24.128Z,63.63
2023-03-19T06:14:34.184Z,63.39
2023-03-19T06:15:55.837Z,63.35
2023-03-19T06:17:03.179Z,63.25
2023-03-19T06:18:06.101Z,62.95
2023-03-19T06:19:09.113Z,62.69
2023-03-19T06:20:13.140Z,62.71
2023-03-19T06:21:16.987Z,62.94
2023-03-19T06:22:20.022Z,62.81
2023-03-19T06:23:23.135Z,62.55
2023-03-19T06:24:26.011Z,62.64
2023-03-19T06:25:28.911Z,62.77
2023-03-19T06:26:32.238Z,62.60
2023-03-19T06:27:35.305Z,62.62
2023-03-19T06:29:00.814Z,62.68
2023-03-19T06:30:04.116Z,62.48
2023-03-19T06:31:08.323Z,61.98
2023-03-19T06:32:29.555Z,62.25
2023-03-19T06:33:37.205Z,62.22
2023-03-19T06:34:40.213Z,62.00
2023-03-19T06:35:43.300Z,61.47
2023-03-19T06:36:46.595Z,61.33
2023-03-19T06:37:49.404Z,61.67
2023-03-19T06:38:52.474Z,61.41
2023-03-19T06:39:55.314Z,61.02
2023-03-19T06:40:58.184Z,60.48
2023-03-19T06:42:01.790Z,60.36
2023-03-19T06:43:04.640Z,60.51
2023-03-19T06:44:07.494Z,60.55
2023-03-19T06:45:10.639Z,60.14
2023-03-19T06:46:13.527Z,59.98
2023-03-19T06:47:16.364Z,59.35
2023-03-19T06:48:19.464Z,59.31
2023-03-19T06:49:22.232Z,59.29
2023-03-19T06:50:25.044Z,59.30
2023-03-19T06:51:27.956Z,59.57
2023-03-19T06:52:30.815Z,59.64
2023-03-19T06:53:33.939Z,58.96
2023-03-19T06:54:38.454Z,59.37
2023-03-19T06:55:41.645Z,58.98
2023-03-19T06:56:44.537Z,58.96
2023-03-19T06:57:50.861Z,58.67
2023-03-19T06:58:57.210Z,58.66
2023-03-19T06:59:59.988Z,58.75
2023-03-19T07:01:03.087Z,58.61
2023-03-19T07:02:05.851Z,58.51
2023-03-19T07:03:09.745Z,58.39
2023-03-19T07:04:12.643Z,58.21
2023-03-19T07:05:15.719Z,58.19
2023-03-19T07:06:18.592Z,58.15
2023-03-19T07:07:21.348Z,58.23
2023-03-19T07:08:24.155Z,58.08
2023-03-19T07:09:27.301Z,58.12
2023-03-19T07:10:30.290Z,57.94
2023-03-19T07:11:35.717Z,58.01
2023-03-19T07:12:38.725Z,58.10
2023-03-19T07:13:41.627Z,58.03
2023-03-19T07:14:44.389Z,58.13
2023-03-19T07:15:47.326Z,58.52
2023-03-19T07:16:50.273Z,58.66
2023-03-19T07:17:53.045Z,58.02
2023-03-19T07:18:56.888Z,58.08
2023-03-19T07:19:59.734Z,57.99
2023-03-19T07:21:02.890Z,58.15
2023-03-19T07:22:05.868Z,57.79
2023-03-19T07:23:08.617Z,58.12
2023-03-19T07:24:11.627Z,57.95
2023-03-19T07:25:14.432Z,57.76
2023-03-19T07:26:18.379Z,57.66
2023-03-19T07:27:21.212Z,57.66
2023-03-19T07:28:24.434Z,57.79
2023-03-19T07:29:27.176Z,57.77
2023-03-19T07:30:29.917Z,57.88
2023-03-19T07:31:32.758Z,57.94
2023-03-19T07:32:36.098Z,57.62
2023-03-19T07:33:38.871Z,57.72
2023-03-19T07:34:41.767Z,57.86
2023-03-19T07:35:44.584Z,57.86
2023-03-19T07:36:47.489Z,57.79
2023-03-19T07:37:50.313Z,57.71
2023-03-19T07:38:53.160Z,57.54
2023-03-19T07:39:56.452Z,57.52
2023-03-19T07:41:02.653Z,57.49
2023-03-19T07:42:06.633Z,57.34
2023-03-19T07:43:09.446Z,57.23
2023-03-19T07:44:12.202Z,57.01
2023-03-19T07:45:15.004Z,57.16
2023-03-19T07:46:18.169Z,57.04
2023-03-19T07:47:29.106Z,57.13
2023-03-19T07:48:32.842Z,57.06
2023-03-19T07:49:35.640Z,57.12
2023-03-19T07:50:38.514Z,57.13
2023-03-19T07:51:41.282Z,57.03
2023-03-19T07:52:47.283Z,56.82
2023-03-19T07:53:50.019Z,56.39
2023-03-19T07:54:53.278Z,56.43
2023-03-19T07:55:55.988Z,56.57
2023-03-19T07:56:58.868Z,56.64
2023-03-19T07:58:02.077Z,56.47
2023-03-19T07:59:04.856Z,56.57
2023-03-19T08:00:08.379Z,56.64
2023-03-19T08:01:15.676Z,56.64
2023-03-19T08:02:21.574Z,56.66
2023-03-19T08:03:25.678Z,56.62
2023-03-19T08:04:28.519Z,56.51
2023-03-19T08:05:31.405Z,56.34
2023-03-19T08:06:34.361Z,56.49
2023-03-19T08:07:37.360Z,56.27
2023-03-19T08:08:40.295Z,56.16
2023-03-19T08:09:43.617Z,56.03
2023-03-19T08:10:48.084Z,56.00
2023-03-19T08:11:51.412Z,55.85
2023-03-19T08:12:54.265Z,55.81
2023-03-19T08:13:57.109Z,55.74
2023-03-19T08:15:00.296Z,55.84
2023-03-19T08:16:03.047Z,55.89
2023-03-19T08:17:06.446Z,55.85
2023-03-19T08:18:09.252Z,55.77
2023-03-19T08:19:12.384Z,55.63
2023-03-19T08:20:16.884Z,55.65
2023-03-19T08:21:19.726Z,55.37
2023-03-19T08:22:22.444Z,55.39
2023-03-19T08:23:25.345Z,55.49
2023-03-19T08:24:28.382Z,55.22
2023-03-19T08:25:32.686Z,55.16
2023-03-19T08:26:35.863Z,55.20
2023-03-19T08:27:38.761Z,55.05
2023-03-19T08:28:41.695Z,54.97
2023-03-19T08:29:44.474Z,54.92
2023-03-19T08:30:47.280Z,54.76
2023-03-19T08:31:49.996Z,54.79
2023-03-19T08:32:53.015Z,54.73
2023-03-19T08:33:56.475Z,54.85
2023-03-19T08:34:59.313Z,54.76
2023-03-19T08:36:10.740Z,54.61
2023-03-19T08:37:13.786Z,54.34
2023-03-19T08:38:16.796Z,54.23
2023-03-19T08:39:19.529Z,54.19
2023-03-19T08:40:23.198Z,54.40
2023-03-19T08:41:26.047Z,54.39
2023-03-19T08:42:29.257Z,54.51
2023-03-19T08:43:33.523Z,54.40
2023-03-19T08:44:36.245Z,54.28
2023-03-19T08:45:38.999Z,54.28
2023-03-19T08:46:42.747Z,54.15
2023-03-19T08:47:45.835Z,54.05
2023-03-19T08:48:48.571Z,54.26
2023-03-19T08:49:52.017Z,54.46
2023-03-19T08:51:00.891Z,54.34
2023-03-19T08:52:04.559Z,54.02
2023-03-19T08:53:07.343Z,54.01
2023-03-19T08:54:11.289Z,54.00
2023-03-19T08:55:14.162Z,53.82
2023-03-19T08:56:16.998Z,53.82
2023-03-19T08:57:19.831Z,53.64
2023-03-19T08:58:23.596Z,53.66
2023-03-19T08:59:27.372Z,53.78
2023-03-19T09:00:30.169Z,53.66
2023-03-19T09:01:32.981Z,53.56
2023-03-19T09:02:36.072Z,53.63
2023-03-19T09:03:40.036Z,53.57
2023-03-19T09:04:44.003Z,53.42
2023-03-19T09:05:46.861Z,53.38
2023-03-19T09:06:52.906Z,53.36
2023-03-19T09:07:55.716Z,53.37
2023-03-19T09:08:58.499Z,53.22
2023-03-19T09:10:01.261Z,52.78
2023-03-19T09:11:05.740Z,52.74
2023-03-19T09:12:10.843Z,52.71
2023-03-19T09:13:13.586Z,52.59
2023-03-19T09:14:17.961Z,52.47
2023-03-19T09:15:20.886Z,52.57
2023-03-19T09:16:23.816Z,52.67
2023-03-19T09:17:26.603Z,52.66
2023-03-19T09:18:29.742Z,52.46
2023-03-19T09:19:33.409Z,52.53
2023-03-19T09:20:36.627Z,52.60
2023-03-19T09:21:39.630Z,52.66
2023-03-19T09:22:42.402Z,52.71
2023-03-19T09:23:45.230Z,52.67
2023-03-19T09:24:48.044Z,52.53
2023-03-19T09:25:51.329Z,52.52
2023-03-19T09:26:54.183Z,52.55
2023-03-19T09:27:56.968Z,52.50
2023-03-19T09:28:59.913Z,52.41
2023-03-19T09:30:03.075Z,52.47
2023-03-19T09:31:09.866Z,52.17
2023-03-19T09:32:12.792Z,52.12
2023-03-19T09:33:17.171Z,51.98
2023-03-19T09:34:20.200Z,51.99
2023-03-19T09:35:23.198Z,51.85
2023-03-19T09:36:26.638Z,51.78
2023-03-19T09:37:29.438Z,51.70
2023-03-19T09:38:32.175Z,51.41
2023-03-19T09:39:35.197Z,51.25
2023-03-19T09:40:42.914Z,51.56
2023-03-19T09:42:07.336Z,51.68
2023-03-19T09:43:34.564Z,51.67
2023-03-19T09:44:39.871Z,51.26
2023-03-19T09:45:42.644Z,51.03
2023-03-19T09:46:56.236Z,51.16
2023-03-19T09:48:13.648Z,51.12
2023-03-19T09:49:26.120Z,51.30
2023-03-19T09:50:29.688Z,51.38
2023-03-19T09:51:58.358Z,51.21
2023-03-19T09:53:23.920Z,51.02
2023-03-19T09:54:42.781Z,50.78
2023-03-19T09:55:51.484Z,50.64
2023-03-19T09:56:54.936Z,50.89
2023-03-19T09:57:59.015Z,50.93
2023-03-19T09:59:03.292Z,50.88
2023-03-19T10:00:24.083Z,50.63
2023-03-19T10:01:34.402Z,50.59
2023-03-19T10:02:43.165Z,50.18
2023-03-19T10:04:20.115Z,50.42
2023-03-19T10:05:28.921Z,50.71
2023-03-19T10:06:37.296Z,50.59
2023-03-19T10:08:06.006Z,50.73
2023-03-19T10:09:27.689Z,50.34
2023-03-19T10:10:45.766Z,50.28
2023-03-19T10:11:56.268Z,49.80
2023-03-19T10:13:22.024Z,50.20
2023-03-19T10:14:43.398Z,50.35
2023-03-19T10:15:47.311Z,50.23
2023-03-19T10:16:54.685Z,50.25
2023-03-19T10:18:04.232Z,50.18
2023-03-19T10:19:06.922Z,50.01
2023-03-19T10:20:22.969Z,49.43
2023-03-19T10:21:29.859Z,49.60
2023-03-19T10:22:39.985Z,49.69
2023-03-19T10:24:16.679Z,50.04
2023-03-19T10:25:23.114Z,49.76
2023-03-19T10:26:31.350Z,50.03
2023-03-19T10:27:34.241Z,49.93
2023-03-19T10:28:37.680Z,49.40
2023-03-19T10:29:43.660Z,49.09
2023-03-19T10:31:07.778Z,49.14
2023-03-19T10:32:21.267Z,49.25
2023-03-19T10:33:29.072Z,49.50
2023-03-19T10:34:33.075Z,49.41
2023-03-19T10:35:44.482Z,49.19
2023-03-19T10:36:47.274Z,49.15
2023-03-19T10:37:50.975Z,49.00
2023-03-19T10:38:54.946Z,48.76
2023-03-19T10:40:00.323Z,48.67
2023-03-19T10:41:54.402Z,48.46
2023-03-19T10:43:22.791Z,47.94
2023-03-19T10:44:30.580Z,48.11
2023-03-19T10:45:37.891Z,48.15
2023-03-19T10:46:41.854Z,48.24
2023-03-19T10:47:44.912Z,47.74
2023-03-19T10:48:47.899Z,47.83
2023-03-19T10:49:51.091Z,47.78
2023-03-19T10:51:06.017Z,47.83
2023-03-19T10:52:38.200Z,47.54
2023-03-19T10:53:41.554Z,47.49
2023-03-19T10:54:46.016Z,47.39
2023-03-19T10:56:01.490Z,47.30
2023-03-19T10:57:04.424Z,47.36
2023-03-19T10:58:17.009Z,47.59
2023-03-19T10:59:27.021Z,47.54
2023-03-19T11:00:33.400Z,47.13
2023-03-19T11:01:40.737Z,47.18
2023-03-19T11:02:49.483Z,46.92
2023-03-19T11:03:57.403Z,46.81
2023-03-19T11:05:29.311Z,46.82
2023-03-19T11:06:36.130Z,47.17
2023-03-19T11:07:39.202Z,47.42
2023-03-19T11:08:42.920Z,47.45
2023-03-19T11:09:50.306Z,47.31
2023-03-19T11:10:53.420Z,47.30
2023-03-19T11:11:59.072Z,46.91
2023-03-19T11:13:24.632Z,46.59
2023-03-19T11:14:38.444Z,46.49
2023-03-19T11:15:41.431Z,46.65
2023-03-19T11:17:17.347Z,46.66
2023-03-19T11:18:27.690Z,46.56
2023-03-19T11:19:41.723Z,46.43
2023-03-19T11:20:58.405Z,45.84
2023-03-19T11:22:19.641Z,46.00
2023-03-19T11:23:31.632Z,46.38
2023-03-19T11:24:41.144Z,45.92
2023-03-19T11:25:52.254Z,45.68
2023-03-19T11:26:57.440Z,45.25
2023-03-19T11:28:26.741Z,45.65
2023-03-19T11:29:29.911Z,45.96
2023-03-19T11:31:00.267Z,46.20
2023-03-19T11:32:27.638Z,45.98
2023-03-19T11:33:45.151Z,45.99
2023-03-19T11:35:01.572Z,45.85
2023-03-19T11:36:33.881Z,46.07
2023-03-19T11:37:57.351Z,45.97
2023-03-19T11:39:12.378Z,45.83
2023-03-19T11:40:25.390Z,45.89
2023-03-19T11:42:05.876Z,46.09
2023-03-19T11:43:17.935Z,46.19
2023-03-19T11:44:40.326Z,46.15
2023-03-19T11:46:12.959Z,46.34
2023-03-19T11:47:32.467Z,46.18
2023-03-19T11:48:46.246Z,45.89
2023-03-19T11:49:53.197Z,45.02
2023-03-19T11:51:32.405Z,45.15
2023-03-19T11:53:19.940Z,45.41
2023-03-19T11:54:37.032Z,45.24
2023-03-19T11:55:58.597Z,45.19
2023-03-19T11:57:08.804Z,45.22
2023-03-19T11:58:24.372Z,45.55
2023-03-19T11:59:43.559Z,45.47
2023-03-19T12:00:55.157Z,45.24
2023-03-19T12:02:17.116Z,45.42
2023-03-19T12:03:48.167Z,45.20
2023-03-19T12:05:12.782Z,44.92
2023-03-19T12:06:48.673Z,44.92
2023-03-19T12:08:05.799Z,44.93
2023-03-19T12:09:23.589Z,44.69
2023-03-19T12:10:30.302Z,44.71
2023-03-19T12:11:36.003Z,44.97
2023-03-19T12:13:06.259Z,44.75
2023-03-19T12:14:27.931Z,44.73
2023-03-19T12:15:46.953Z,44.62
2023-03-19T12:17:07.888Z,44.61
2023-03-19T12:18:32.043Z,44.65
2023-03-19T12:19:50.777Z,44.81
2023-03-19T12:21:05.331Z,44.58
2023-03-19T12:22:45.443Z,44.71
2023-03-19T12:24:18.315Z,44.78
2023-03-19T12:26:06.155Z,44.43
2023-03-19T12:27:28.104Z,44.33
2023-03-19T12:28:39.614Z,44.00
2023-03-19T12:29:46.631Z,44.05
2023-03-19T12:30:58.145Z,44.11
2023-03-19T12:32:00.938Z,44.11
2023-03-19T12:33:18.758Z,44.20
2023-03-19T12:34:49.240Z,44.23
2023-03-19T12:35:56.277Z,44.28
2023-03-19T12:37:14.332Z,44.30
2023-03-19T12:38:24.285Z,44.26
2023-03-19T12:39:34.647Z,44.36
2023-03-19T12:40:41.828Z,43.80
2023-03-19T12:41:48.446Z,43.69
2023-03-19T12:42:51.977Z,43.77
2023-03-19T12:44:19.237Z,43.67
2023-03-19T12:45:41.171Z,43.74
2023-03-19T12:46:51.930Z,44.14
2023-03-19T12:48:00.903Z,43.75
2023-03-19T12:49:11.240Z,43.67
2023-03-19T12:50:17.444Z,43.71
2023-03-19T12:51:24.302Z,43.94
2023-03-19T12:52:31.291Z,43.77
2023-03-19T12:53:40.462Z,43.61
2023-03-19T12:54:55.444Z,43.38
2023-03-19T12:56:04.537Z,43.50
2023-03-19T12:57:10.758Z,43.55
2023-03-19T12:58:31.374Z,43.51
2023-03-19T12:59:53.584Z,43.58
2023-03-19T13:01:16.147Z,43.82
2023-03-19T13:02:27.289Z,43.61
2023-03-19T13:03:48.779Z,43.54
2023-03-19T13:04:57.045Z,43.57
2023-03-19T13:06:16.852Z,43.71
2023-03-19T13:07:26.834Z,43.61
2023-03-19T13:08:37.803Z,43.76
2023-03-19T13:09:59.167Z,43.92
2023-03-19T13:11:10.493Z,43.61
2023-03-19T13:12:19.123Z,43.82
2023-03-19T13:13:37.366Z,44.02
2023-03-19T13:14:52.566Z,43.96
2023-03-19T13:16:02.633Z,43.85
2023-03-19T13:17:41.586Z,44.04
2023-03-19T13:18:59.076Z,44.10
2023-03-19T13:20:14.203Z,44.33
2023-03-19T13:21:30.234Z,44.09
2023-03-19T13:22:37.880Z,44.13
2023-03-19T13:23:43.077Z,44.09
2023-03-19T13:24:47.001Z,44.16
2023-03-19T13:25:52.974Z,44.30
2023-03-19T13:26:59.344Z,44.51
2023-03-19T13:28:06.710Z,44.38
2023-03-19T13:29:19.121Z,44.49
2023-03-19T13:30:23.284Z,44.45
2023-03-19T13:31:27.908Z,44.27
2023-03-19T13:32:36.761Z,44.26
2023-03-19T13:33:40.281Z,44.17
2023-03-19T13:34:43.076Z,44.17
2023-03-19T13:35:50.763Z,44.37
2023-03-19T13:37:05.575Z,44.29
2023-03-19T13:38:19.662Z,44.23
2023-03-19T13:39:28.637Z,44.40
2023-03-19T13:40:50.931Z,44.58
2023-03-19T13:42:17.498Z,44.38
2023-03-19T13:43:42.978Z,44.34
2023-03-19T13:45:03.578Z,44.33
2023-03-19T13:46:09.759Z,44.60
2023-03-19T13:47:28.829Z,44.56
2023-03-19T13:48:39.222Z,44.67
2023-03-19T13:50:02.351Z,44.70
2023-03-19T13:51:23.640Z,44.68
2023-03-19T13:52:26.462Z,44.87
2023-03-19T13:53:29.210Z,44.97
2023-03-19T13:54:37.253Z,44.80
2023-03-19T13:56:26.296Z,44.72
2023-03-19T13:57:36.026Z,44.62
2023-03-19T13:58:53.074Z,44.86
2023-03-19T13:59:56.581Z,45.17
2023-03-19T14:01:00.514Z,45.15
2023-03-19T14:02:21.388Z,44.97
2023-03-19T14:03:26.639Z,44.62
2023-03-19T14:04:34.585Z,44.60
2023-03-19T14:05:37.716Z,44.80
2023-03-19T14:06:47.321Z,44.75
2023-03-19T14:07:55.318Z,44.70
2023-03-19T14:08:59.145Z,44.83
2023-03-19T14:10:02.366Z,44.73
2023-03-19T14:11:07.689Z,44.64
2023-03-19T14:12:23.088Z,44.78
2023-03-19T14:13:37.371Z,44.68
2023-03-19T14:14:47.529Z,44.74
2023-03-19T14:15:51.944Z,44.83
2023-03-19T14:16:55.036Z,45.08
2023-03-19T14:18:02.030Z,44.90
2023-03-19T14:19:16.813Z,44.77
2023-03-19T14:20:24.621Z,44.51
2023-03-19T14:22:00.110Z,44.58
2023-03-19T14:23:09.160Z,44.65
2023-03-19T14:26:01.415Z,44.44
2023-03-19T14:27:29.580Z,44.36
2023-03-19T14:28:57.047Z,44.22
2023-03-19T14:30:09.376Z,44.26
2023-03-19T14:31:30.041Z,44.34
2023-03-19T14:32:40.940Z,44.40
2023-03-19T14:33:51.865Z,44.27
2023-03-19T14:34:56.185Z,44.18
2023-03-19T14:36:03.148Z,44.11
2023-03-19T14:37:16.646Z,44.12